KMWH/MWH METAR and TAF weather

Enter ICAO airport designator
Station Type Date Time Source
KMWH METAR 2020/09/24 10:52 UTC NOAA

KMWH 241052Z AUTO 23007KT 10SM CLR 14/09 A2983 RMK AO2 SLP096 T01440089


Station Type Date Time Source
KMWH Decoded METAR 2020/09/24 10:52 UTC NOAA

GRANT COUNTY AIRPORT, WA, United States (KMWH) 47-12N 119-19W 362M
Sep 24, 2020 - 06:52 AM EDT / 2020.09.24 1052 UTC
Wind: from the SW (230 degrees) at 8 MPH (7 KT):0
Visibility: 10 mile(s):0
Sky conditions: clear
Temperature: 57.9 F (14.4 C)
Dew Point: 48.0 F (8.9 C)
Relative Humidity: 69%
Pressure (altimeter): 29.83 in. Hg (1010 hPa)
ob: KMWH 241052Z AUTO 23007KT 10SM CLR 14/09 A2983 RMK AO2 SLP096 T01440089
cycle: 11

Station Type Date Time Source
KMWH TAF 2020/09/24 12:22 UTC NOAA

TAF KMWH 241120Z 2412/2512 20008KT P6SM FEW040 SCT250
FM241700 22012KT P6SM SCT060 BKN200
FM242000 22015G26KT P6SM SCT070 BKN200
FM250200 25011KT P6SM FEW060 SCT200
FM250600 23006KT P6SM SCT120 BKN200
FM251100 17006KT P6SM BKN100 OVC150

Example: see airport list